sensor_id;sensor_type;location;lat;lon;timestamp;P1;durP1;ratioP1;P2;durP2;ratioP2
68718;SDS011;55696;52.138;5.444;2022-08-11T00:01:56;8.85;;;2.50;;
68718;SDS011;55696;52.138;5.444;2022-08-11T00:04:25;5.13;;;2.40;;
68718;SDS011;55696;52.138;5.444;2022-08-11T00:07:01;4.20;;;1.90;;
68718;SDS011;55696;52.138;5.444;2022-08-11T00:09:33;4.38;;;2.15;;
68718;SDS011;55696;52.138;5.444;2022-08-11T00:12:10;8.20;;;2.33;;
68718;SDS011;55696;52.138;5.444;2022-08-11T00:14:39;8.75;;;2.30;;
68718;SDS011;55696;52.138;5.444;2022-08-11T00:17:08;4.75;;;2.05;;
68718;SDS011;55696;52.138;5.444;2022-08-11T00:19:38;7.88;;;2.42;;
68718;SDS011;55696;52.138;5.444;2022-08-11T00:22:30;4.45;;;2.47;;
68718;SDS011;55696;52.138;5.444;2022-08-11T00:24:58;6.05;;;2.65;;
68718;SDS011;55696;52.138;5.444;2022-08-11T00:27:31;8.18;;;2.42;;
68718;SDS011;55696;52.138;5.444;2022-08-11T00:30:00;5.80;;;2.63;;
68718;SDS011;55696;52.138;5.444;2022-08-11T00:32:27;5.88;;;2.75;;
68718;SDS011;55696;52.138;5.444;2022-08-11T00:34:55;5.68;;;2.50;;
68718;SDS011;55696;52.138;5.444;2022-08-11T00:37:44;6.65;;;2.60;;
68718;SDS011;55696;52.138;5.444;2022-08-11T00:40:21;3.88;;;2.65;;
68718;SDS011;55696;52.138;5.444;2022-08-11T00:43:08;5.30;;;2.67;;
68718;SDS011;55696;52.138;5.444;2022-08-11T00:46:33;7.68;;;2.53;;
68718;SDS011;55696;52.138;5.444;2022-08-11T00:48:44;4.13;;;2.40;;
68718;SDS011;55696;52.138;5.444;2022-08-11T00:51:29;4.18;;;2.63;;
68718;SDS011;55696;52.138;5.444;2022-08-11T00:54:57;5.63;;;2.75;;
68718;SDS011;55696;52.138;5.444;2022-08-11T00:57:52;6.70;;;3.10;;
68718;SDS011;55696;52.138;5.444;2022-08-11T01:00:57;5.72;;;2.50;;
68718;SDS011;55696;52.138;5.444;2022-08-11T01:03:58;7.63;;;2.80;;
68718;SDS011;55696;52.138;5.444;2022-08-11T01:06:37;5.15;;;2.92;;
68718;SDS011;55696;52.138;5.444;2022-08-11T01:09:23;6.07;;;3.03;;
68718;SDS011;55696;52.138;5.444;2022-08-11T01:25:52;4.53;;;2.60;;
68718;SDS011;55696;52.138;5.444;2022-08-11T01:41:13;5.53;;;2.93;;
68718;SDS011;55696;52.138;5.444;2022-08-11T01:44:22;9.10;;;3.22;;
68718;SDS011;55696;52.138;5.444;2022-08-11T01:53:04;6.97;;;3.05;;
68718;SDS011;55696;52.138;5.444;2022-08-11T01:55:51;7.80;;;3.30;;
68718;SDS011;55696;52.138;5.444;2022-08-11T01:58:35;6.95;;;2.83;;
68718;SDS011;55696;52.138;5.444;2022-08-11T02:01:13;6.28;;;3.58;;
68718;SDS011;55696;52.138;5.444;2022-08-11T02:07:03;5.70;;;3.17;;
68718;SDS011;55696;52.138;5.444;2022-08-11T02:20:56;5.05;;;3.20;;
68718;SDS011;55696;52.138;5.444;2022-08-11T02:23:50;5.47;;;3.20;;
68718;SDS011;55696;52.138;5.444;2022-08-11T02:29:18;5.53;;;3.22;;
68718;SDS011;55696;52.138;5.444;2022-08-11T02:35:14;8.10;;;3.22;;
68718;SDS011;55696;52.138;5.444;2022-08-11T02:44:17;6.03;;;3.30;;
68718;SDS011;55696;52.138;5.444;2022-08-11T02:47:06;7.32;;;3.97;;
68718;SDS011;55696;52.138;5.444;2022-08-11T02:49:46;6.32;;;3.70;;
68718;SDS011;55696;52.138;5.444;2022-08-11T02:55:34;7.13;;;3.30;;
68718;SDS011;55696;52.138;5.444;2022-08-11T03:01:44;6.00;;;3.20;;
68718;SDS011;55696;52.138;5.444;2022-08-11T03:07:31;9.90;;;3.07;;
68718;SDS011;55696;52.138;5.444;2022-08-11T03:13:15;7.82;;;3.78;;
68718;SDS011;55696;52.138;5.444;2022-08-11T03:21:25;7.13;;;3.97;;
68718;SDS011;55696;52.138;5.444;2022-08-11T03:24:38;5.65;;;3.53;;
68718;SDS011;55696;52.138;5.444;2022-08-11T03:30:13;11.68;;;4.88;;
68718;SDS011;55696;52.138;5.444;2022-08-11T03:32:56;7.82;;;3.90;;
68718;SDS011;55696;52.138;5.444;2022-08-11T03:36:09;6.77;;;3.93;;
68718;SDS011;55696;52.138;5.444;2022-08-11T03:38:56;7.72;;;4.10;;
68718;SDS011;55696;52.138;5.444;2022-08-11T03:44:36;8.00;;;3.80;;
68718;SDS011;55696;52.138;5.444;2022-08-11T03:58:54;6.75;;;4.50;;
68718;SDS011;55696;52.138;5.444;2022-08-11T04:16:53;9.93;;;4.53;;
68718;SDS011;55696;52.138;5.444;2022-08-11T04:23:00;6.95;;;4.57;;
68718;SDS011;55696;52.138;5.444;2022-08-11T04:26:05;8.18;;;4.63;;
68718;SDS011;55696;52.138;5.444;2022-08-11T04:29:02;8.40;;;4.80;;
68718;SDS011;55696;52.138;5.444;2022-08-11T04:52:22;6.93;;;5.00;;
68718;SDS011;55696;52.138;5.444;2022-08-11T04:58:29;9.32;;;5.18;;
68718;SDS011;55696;52.138;5.444;2022-08-11T05:04:35;8.47;;;4.80;;
68718;SDS011;55696;52.138;5.444;2022-08-11T05:13:09;8.75;;;4.70;;
68718;SDS011;55696;52.138;5.444;2022-08-11T05:15:57;11.55;;;4.90;;
68718;SDS011;55696;52.138;5.444;2022-08-11T05:18:52;9.13;;;5.13;;
68718;SDS011;55696;52.138;5.444;2022-08-11T05:21:50;7.50;;;4.47;;
68718;SDS011;55696;52.138;5.444;2022-08-11T05:24:43;12.25;;;5.47;;
68718;SDS011;55696;52.138;5.444;2022-08-11T05:27:36;7.28;;;4.82;;
68718;SDS011;55696;52.138;5.444;2022-08-11T05:30:32;8.75;;;4.85;;
68718;SDS011;55696;52.138;5.444;2022-08-11T05:33:23;9.00;;;5.27;;
68718;SDS011;55696;52.138;5.444;2022-08-11T05:39:07;9.05;;;4.97;;
68718;SDS011;55696;52.138;5.444;2022-08-11T05:42:02;8.45;;;5.07;;
68718;SDS011;55696;52.138;5.444;2022-08-11T05:45:08;10.13;;;5.65;;
68718;SDS011;55696;52.138;5.444;2022-08-11T05:48:16;11.90;;;5.83;;
68718;SDS011;55696;52.138;5.444;2022-08-11T05:51:02;9.23;;;5.32;;
68718;SDS011;55696;52.138;5.444;2022-08-11T05:53:58;8.48;;;5.28;;
68718;SDS011;55696;52.138;5.444;2022-08-11T05:56:58;8.82;;;5.28;;
68718;SDS011;55696;52.138;5.444;2022-08-11T05:59:27;10.77;;;4.85;;
68718;SDS011;55696;52.138;5.444;2022-08-11T06:01:59;10.77;;;5.47;;
68718;SDS011;55696;52.138;5.444;2022-08-11T06:04:28;14.02;;;5.40;;
68718;SDS011;55696;52.138;5.444;2022-08-11T06:06:56;10.10;;;6.00;;
68718;SDS011;55696;52.138;5.444;2022-08-11T06:09:32;9.57;;;5.80;;
68718;SDS011;55696;52.138;5.444;2022-08-11T06:12:05;8.35;;;5.30;;
68718;SDS011;55696;52.138;5.444;2022-08-11T06:14:34;9.23;;;5.37;;
68718;SDS011;55696;52.138;5.444;2022-08-11T06:17:08;11.00;;;5.00;;
68718;SDS011;55696;52.138;5.444;2022-08-11T06:19:39;9.15;;;5.88;;
68718;SDS011;55696;52.138;5.444;2022-08-11T06:22:08;8.75;;;5.43;;
68718;SDS011;55696;52.138;5.444;2022-08-11T06:24:39;10.70;;;5.63;;
68718;SDS011;55696;52.138;5.444;2022-08-11T06:27:07;12.03;;;5.13;;
68718;SDS011;55696;52.138;5.444;2022-08-11T06:29:45;11.20;;;5.65;;
68718;SDS011;55696;52.138;5.444;2022-08-11T06:32:27;8.52;;;4.80;;
68718;SDS011;55696;52.138;5.444;2022-08-11T06:35:02;7.75;;;4.88;;
68718;SDS011;55696;52.138;5.444;2022-08-11T06:37:52;10.70;;;5.25;;
68718;SDS011;55696;52.138;5.444;2022-08-11T06:40:30;12.20;;;5.50;;
68718;SDS011;55696;52.138;5.444;2022-08-11T06:46:01;8.38;;;4.97;;
68718;SDS011;55696;52.138;5.444;2022-08-11T06:48:31;8.57;;;5.50;;
68718;SDS011;55696;52.138;5.444;2022-08-11T06:51:00;7.13;;;4.05;;
68718;SDS011;55696;52.138;5.444;2022-08-11T06:53:49;9.17;;;5.00;;
68718;SDS011;55696;52.138;5.444;2022-08-11T06:56:36;6.25;;;3.90;;
68718;SDS011;55696;52.138;5.444;2022-08-11T06:59:43;7.88;;;4.75;;
68718;SDS011;55696;52.138;5.444;2022-08-11T07:02:30;5.60;;;3.92;;
68718;SDS011;55696;52.138;5.444;2022-08-11T07:05:07;9.18;;;4.32;;
68718;SDS011;55696;52.138;5.444;2022-08-11T07:13:43;6.72;;;3.92;;
68718;SDS011;55696;52.138;5.444;2022-08-11T07:16:30;7.57;;;3.65;;
68718;SDS011;55696;52.138;5.444;2022-08-11T07:19:03;7.07;;;3.65;;
68718;SDS011;55696;52.138;5.444;2022-08-11T07:21:51;5.37;;;3.93;;
68718;SDS011;55696;52.138;5.444;2022-08-11T07:24:46;7.65;;;3.83;;
68718;SDS011;55696;52.138;5.444;2022-08-11T07:27:42;8.00;;;4.50;;
68718;SDS011;55696;52.138;5.444;2022-08-11T07:30:30;5.70;;;3.25;;
68718;SDS011;55696;52.138;5.444;2022-08-11T07:33:00;6.47;;;3.50;;
68718;SDS011;55696;52.138;5.444;2022-08-11T07:35:30;6.88;;;4.07;;
68718;SDS011;55696;52.138;5.444;2022-08-11T07:38:10;8.27;;;4.25;;
68718;SDS011;55696;52.138;5.444;2022-08-11T07:40:47;11.05;;;4.00;;
68718;SDS011;55696;52.138;5.444;2022-08-11T07:43:15;7.50;;;3.45;;
68718;SDS011;55696;52.138;5.444;2022-08-11T07:45:43;9.00;;;3.85;;
68718;SDS011;55696;52.138;5.444;2022-08-11T07:48:30;5.82;;;3.88;;
68718;SDS011;55696;52.138;5.444;2022-08-11T07:51:17;8.43;;;3.83;;
68718;SDS011;55696;52.138;5.444;2022-08-11T07:54:04;6.40;;;3.92;;
68718;SDS011;55696;52.138;5.444;2022-08-11T07:56:42;9.27;;;4.80;;
68718;SDS011;55696;52.138;5.444;2022-08-11T07:59:30;7.85;;;3.90;;
68718;SDS011;55696;52.138;5.444;2022-08-11T08:02:39;8.75;;;4.07;;
68718;SDS011;55696;52.138;5.444;2022-08-11T08:05:26;11.65;;;4.30;;
68718;SDS011;55696;52.138;5.444;2022-08-11T08:08:13;7.22;;;3.90;;
68718;SDS011;55696;52.138;5.444;2022-08-11T08:11:00;7.95;;;4.05;;
68718;SDS011;55696;52.138;5.444;2022-08-11T08:13:53;10.55;;;4.18;;
68718;SDS011;55696;52.138;5.444;2022-08-11T08:16:39;6.80;;;3.75;;
68718;SDS011;55696;52.138;5.444;2022-08-11T08:19:25;7.10;;;3.25;;
68718;SDS011;55696;52.138;5.444;2022-08-11T08:21:52;5.68;;;3.00;;
68718;SDS011;55696;52.138;5.444;2022-08-11T08:24:36;14.77;;;3.83;;
68718;SDS011;55696;52.138;5.444;2022-08-11T08:27:07;10.45;;;4.60;;
68718;SDS011;55696;52.138;5.444;2022-08-11T08:29:37;9.63;;;3.88;;
68718;SDS011;55696;52.138;5.444;2022-08-11T08:32:23;8.43;;;3.50;;
68718;SDS011;55696;52.138;5.444;2022-08-11T08:34:53;7.38;;;3.40;;
68718;SDS011;55696;52.138;5.444;2022-08-11T08:37:22;7.88;;;3.50;;
68718;SDS011;55696;52.138;5.444;2022-08-11T08:40:11;7.30;;;4.07;;
68718;SDS011;55696;52.138;5.444;2022-08-11T08:42:41;9.05;;;3.60;;
68718;SDS011;55696;52.138;5.444;2022-08-11T08:45:16;8.48;;;3.70;;
68718;SDS011;55696;52.138;5.444;2022-08-11T08:47:45;7.78;;;3.30;;
68718;SDS011;55696;52.138;5.444;2022-08-11T08:50:19;6.57;;;3.53;;
68718;SDS011;55696;52.138;5.444;2022-08-11T08:52:59;5.93;;;3.47;;
68718;SDS011;55696;52.138;5.444;2022-08-11T08:55:30;5.88;;;3.05;;
68718;SDS011;55696;52.138;5.444;2022-08-11T08:57:58;8.45;;;3.22;;
68718;SDS011;55696;52.138;5.444;2022-08-11T09:00:29;7.03;;;2.85;;
68718;SDS011;55696;52.138;5.444;2022-08-11T09:03:08;7.03;;;3.05;;
68718;SDS011;55696;52.138;5.444;2022-08-11T09:05:55;7.78;;;2.90;;
68718;SDS011;55696;52.138;5.444;2022-08-11T09:08:23;7.10;;;3.00;;
68718;SDS011;55696;52.138;5.444;2022-08-11T09:10:50;5.30;;;3.00;;
68718;SDS011;55696;52.138;5.444;2022-08-11T09:13:39;5.75;;;2.60;;
68718;SDS011;55696;52.138;5.444;2022-08-11T09:16:09;7.07;;;3.08;;
68718;SDS011;55696;52.138;5.444;2022-08-11T09:18:37;8.15;;;2.50;;
68718;SDS011;55696;52.138;5.444;2022-08-11T09:21:05;4.47;;;2.83;;
68718;SDS011;55696;52.138;5.444;2022-08-11T09:23:32;4.63;;;2.30;;
68718;SDS011;55696;52.138;5.444;2022-08-11T09:26:37;6.95;;;2.60;;
68718;SDS011;55696;52.138;5.444;2022-08-11T09:29:27;4.85;;;2.42;;
68718;SDS011;55696;52.138;5.444;2022-08-11T09:31:57;4.47;;;2.80;;
68718;SDS011;55696;52.138;5.444;2022-08-11T09:34:24;7.90;;;3.00;;
68718;SDS011;55696;52.138;5.444;2022-08-11T09:36:52;6.80;;;3.13;;
68718;SDS011;55696;52.138;5.444;2022-08-11T09:39:54;11.52;;;3.30;;
68718;SDS011;55696;52.138;5.444;2022-08-11T09:42:40;7.40;;;3.55;;
68718;SDS011;55696;52.138;5.444;2022-08-11T09:45:27;10.77;;;3.00;;
68718;SDS011;55696;52.138;5.444;2022-08-11T09:48:05;5.93;;;2.50;;
68718;SDS011;55696;52.138;5.444;2022-08-11T09:50:33;7.15;;;2.90;;
68718;SDS011;55696;52.138;5.444;2022-08-11T09:53:01;7.03;;;2.78;;
68718;SDS011;55696;52.138;5.444;2022-08-11T09:55:51;5.53;;;2.58;;
68718;SDS011;55696;52.138;5.444;2022-08-11T09:58:19;7.65;;;2.80;;
68718;SDS011;55696;52.138;5.444;2022-08-11T10:01:06;6.35;;;2.53;;
68718;SDS011;55696;52.138;5.444;2022-08-11T10:03:57;6.10;;;2.40;;
68718;SDS011;55696;52.138;5.444;2022-08-11T10:06:28;7.40;;;2.65;;
68718;SDS011;55696;52.138;5.444;2022-08-11T10:09:20;7.82;;;2.67;;
68718;SDS011;55696;52.138;5.444;2022-08-11T10:11:55;6.38;;;2.70;;
68718;SDS011;55696;52.138;5.444;2022-08-11T10:14:24;5.82;;;2.30;;
68718;SDS011;55696;52.138;5.444;2022-08-11T10:17:11;7.57;;;2.50;;
68718;SDS011;55696;52.138;5.444;2022-08-11T10:19:39;4.45;;;2.22;;
68718;SDS011;55696;52.138;5.444;2022-08-11T10:22:08;5.65;;;2.60;;
68718;SDS011;55696;52.138;5.444;2022-08-11T10:24:58;5.35;;;2.70;;
68718;SDS011;55696;52.138;5.444;2022-08-11T10:27:45;3.47;;;2.15;;
68718;SDS011;55696;52.138;5.444;2022-08-11T10:30:34;7.13;;;2.47;;
68718;SDS011;55696;52.138;5.444;2022-08-11T10:33:22;6.63;;;2.28;;
68718;SDS011;55696;52.138;5.444;2022-08-11T10:36:28;3.33;;;2.42;;
68718;SDS011;55696;52.138;5.444;2022-08-11T10:38:57;7.50;;;2.42;;
68718;SDS011;55696;52.138;5.444;2022-08-11T10:41:26;3.97;;;2.30;;
68718;SDS011;55696;52.138;5.444;2022-08-11T10:44:42;7.70;;;2.67;;
68718;SDS011;55696;52.138;5.444;2022-08-11T10:47:11;4.72;;;2.33;;
68718;SDS011;55696;52.138;5.444;2022-08-11T10:49:58;5.28;;;2.53;;
68718;SDS011;55696;52.138;5.444;2022-08-11T10:52:46;3.88;;;2.50;;
68718;SDS011;55696;52.138;5.444;2022-08-11T10:55:34;4.70;;;2.28;;
68718;SDS011;55696;52.138;5.444;2022-08-11T10:58:24;5.80;;;2.78;;
68718;SDS011;55696;52.138;5.444;2022-08-11T11:01:09;4.45;;;2.30;;
68718;SDS011;55696;52.138;5.444;2022-08-11T11:03:36;6.85;;;2.53;;
68718;SDS011;55696;52.138;5.444;2022-08-11T11:08:56;5.38;;;2.40;;
68718;SDS011;55696;52.138;5.444;2022-08-11T11:11:32;10.17;;;2.13;;
68718;SDS011;55696;52.138;5.444;2022-08-11T11:14:21;5.68;;;2.50;;
68718;SDS011;55696;52.138;5.444;2022-08-11T11:17:34;5.90;;;2.10;;
68718;SDS011;55696;52.138;5.444;2022-08-11T11:20:25;4.55;;;2.33;;
68718;SDS011;55696;52.138;5.444;2022-08-11T11:23:17;4.60;;;2.08;;
68718;SDS011;55696;52.138;5.444;2022-08-11T11:37:34;7.50;;;1.90;;
68718;SDS011;55696;52.138;5.444;2022-08-11T11:40:10;5.03;;;2.10;;
68718;SDS011;55696;52.138;5.444;2022-08-11T11:42:39;3.50;;;2.30;;
68718;SDS011;55696;52.138;5.444;2022-08-11T11:45:09;4.05;;;2.00;;
68718;SDS011;55696;52.138;5.444;2022-08-11T11:47:49;7.78;;;2.15;;
68718;SDS011;55696;52.138;5.444;2022-08-11T11:50:22;6.57;;;2.08;;
68718;SDS011;55696;52.138;5.444;2022-08-11T11:52:58;4.93;;;2.03;;
68718;SDS011;55696;52.138;5.444;2022-08-11T11:55:27;4.45;;;2.20;;
68718;SDS011;55696;52.138;5.444;2022-08-11T11:57:56;5.45;;;2.08;;
68718;SDS011;55696;52.138;5.444;2022-08-11T12:00:44;6.47;;;2.03;;
68718;SDS011;55696;52.138;5.444;2022-08-11T12:03:31;2.80;;;1.90;;
68718;SDS011;55696;52.138;5.444;2022-08-11T12:05:59;5.23;;;2.10;;
68718;SDS011;55696;52.138;5.444;2022-08-11T12:08:27;5.30;;;2.00;;
68718;SDS011;55696;52.138;5.444;2022-08-11T12:10:58;6.82;;;1.90;;
68718;SDS011;55696;52.138;5.444;2022-08-11T12:13:50;3.60;;;1.90;;
68718;SDS011;55696;52.138;5.444;2022-08-11T12:16:18;3.80;;;1.83;;
68718;SDS011;55696;52.138;5.444;2022-08-11T12:19:02;3.90;;;2.33;;
68718;SDS011;55696;52.138;5.444;2022-08-11T12:21:31;3.63;;;1.80;;
68718;SDS011;55696;52.138;5.444;2022-08-11T12:23:59;5.10;;;1.85;;
68718;SDS011;55696;52.138;5.444;2022-08-11T12:26:45;5.43;;;1.80;;
68718;SDS011;55696;52.138;5.444;2022-08-11T12:29:33;5.72;;;1.80;;
68718;SDS011;55696;52.138;5.444;2022-08-11T12:32:00;3.43;;;2.03;;
68718;SDS011;55696;52.138;5.444;2022-08-11T12:34:32;4.60;;;1.80;;
68718;SDS011;55696;52.138;5.444;2022-08-11T12:37:00;3.42;;;2.00;;
68718;SDS011;55696;52.138;5.444;2022-08-11T12:39:48;4.75;;;2.00;;
68718;SDS011;55696;52.138;5.444;2022-08-11T12:43:00;5.15;;;1.80;;
68718;SDS011;55696;52.138;5.444;2022-08-11T12:46:04;5.00;;;1.67;;
68718;SDS011;55696;52.138;5.444;2022-08-11T12:48:41;3.60;;;2.08;;
68718;SDS011;55696;52.138;5.444;2022-08-11T12:51:31;4.55;;;2.20;;
68718;SDS011;55696;52.138;5.444;2022-08-11T12:54:41;5.07;;;2.25;;
68718;SDS011;55696;52.138;5.444;2022-08-11T13:00:20;4.90;;;2.00;;
68718;SDS011;55696;52.138;5.444;2022-08-11T13:03:08;4.35;;;1.80;;
68718;SDS011;55696;52.138;5.444;2022-08-11T13:05:56;6.88;;;1.90;;
68718;SDS011;55696;52.138;5.444;2022-08-11T13:08:26;4.43;;;2.22;;
68718;SDS011;55696;52.138;5.444;2022-08-11T13:10:56;4.13;;;2.10;;
68718;SDS011;55696;52.138;5.444;2022-08-11T13:13:44;5.13;;;2.00;;
68718;SDS011;55696;52.138;5.444;2022-08-11T13:16:31;3.10;;;1.88;;
68718;SDS011;55696;52.138;5.444;2022-08-11T13:19:19;5.35;;;1.95;;
68718;SDS011;55696;52.138;5.444;2022-08-11T13:21:48;5.00;;;2.20;;
68718;SDS011;55696;52.138;5.444;2022-08-11T13:24:15;3.63;;;2.00;;
68718;SDS011;55696;52.138;5.444;2022-08-11T13:26:43;5.07;;;1.70;;
68718;SDS011;55696;52.138;5.444;2022-08-11T13:29:25;3.38;;;2.05;;
68718;SDS011;55696;52.138;5.444;2022-08-11T13:31:57;4.45;;;1.98;;
68718;SDS011;55696;52.138;5.444;2022-08-11T13:34:27;7.40;;;2.40;;
68718;SDS011;55696;52.138;5.444;2022-08-11T13:36:58;5.20;;;2.03;;
68718;SDS011;55696;52.138;5.444;2022-08-11T13:39:27;7.33;;;2.00;;
68718;SDS011;55696;52.138;5.444;2022-08-11T13:41:57;7.53;;;2.00;;
68718;SDS011;55696;52.138;5.444;2022-08-11T13:44:26;4.18;;;2.10;;
68718;SDS011;55696;52.138;5.444;2022-08-11T13:46:56;5.38;;;1.52;;
68718;SDS011;55696;52.138;5.444;2022-08-11T13:49:26;3.58;;;1.88;;
68718;SDS011;55696;52.138;5.444;2022-08-11T13:51:54;4.53;;;1.83;;
68718;SDS011;55696;52.138;5.444;2022-08-11T13:54:22;2.80;;;2.00;;
68718;SDS011;55696;52.138;5.444;2022-08-11T13:56:54;3.85;;;2.08;;
68718;SDS011;55696;52.138;5.444;2022-08-11T13:59:23;5.50;;;2.05;;
68718;SDS011;55696;52.138;5.444;2022-08-11T14:01:55;4.68;;;1.63;;
68718;SDS011;55696;52.138;5.444;2022-08-11T14:05:11;3.77;;;2.20;;
68718;SDS011;55696;52.138;5.444;2022-08-11T14:07:42;4.78;;;2.00;;
68718;SDS011;55696;52.138;5.444;2022-08-11T14:10:16;4.80;;;1.48;;
68718;SDS011;55696;52.138;5.444;2022-08-11T14:16:10;3.33;;;1.90;;
68718;SDS011;55696;52.138;5.444;2022-08-11T14:18:44;4.23;;;1.90;;
68718;SDS011;55696;52.138;5.444;2022-08-11T14:21:15;4.47;;;1.98;;
68718;SDS011;55696;52.138;5.444;2022-08-11T14:24:02;3.17;;;2.03;;
68718;SDS011;55696;52.138;5.444;2022-08-11T14:26:30;3.78;;;2.17;;
68718;SDS011;55696;52.138;5.444;2022-08-11T14:29:05;3.67;;;1.90;;
68718;SDS011;55696;52.138;5.444;2022-08-11T14:31:43;9.37;;;2.23;;
68718;SDS011;55696;52.138;5.444;2022-08-11T14:34:19;6.40;;;2.20;;
68718;SDS011;55696;52.138;5.444;2022-08-11T14:36:49;7.90;;;1.83;;
68718;SDS011;55696;52.138;5.444;2022-08-11T14:39:18;4.35;;;1.90;;
68718;SDS011;55696;52.138;5.444;2022-08-11T14:41:50;4.72;;;2.10;;
68718;SDS011;55696;52.138;5.444;2022-08-11T14:44:41;3.13;;;1.67;;
68718;SDS011;55696;52.138;5.444;2022-08-11T14:47:50;4.55;;;2.00;;
68718;SDS011;55696;52.138;5.444;2022-08-11T14:50:29;3.92;;;1.75;;
68718;SDS011;55696;52.138;5.444;2022-08-11T14:52:59;3.30;;;1.95;;
68718;SDS011;55696;52.138;5.444;2022-08-11T14:55:28;8.55;;;2.20;;
68718;SDS011;55696;52.138;5.444;2022-08-11T14:58:17;3.27;;;1.83;;
68718;SDS011;55696;52.138;5.444;2022-08-11T15:00:48;4.07;;;1.98;;
68718;SDS011;55696;52.138;5.444;2022-08-11T15:03:23;4.95;;;2.00;;
68718;SDS011;55696;52.138;5.444;2022-08-11T15:05:54;4.90;;;2.22;;
68718;SDS011;55696;52.138;5.444;2022-08-11T15:08:26;5.82;;;2.10;;
68718;SDS011;55696;52.138;5.444;2022-08-11T15:11:14;9.73;;;2.27;;
68718;SDS011;55696;52.138;5.444;2022-08-11T15:14:02;3.47;;;1.80;;
68718;SDS011;55696;52.138;5.444;2022-08-11T15:16:31;3.78;;;1.88;;
68718;SDS011;55696;52.138;5.444;2022-08-11T15:19:18;7.22;;;2.40;;
68718;SDS011;55696;52.138;5.444;2022-08-11T15:21:47;4.90;;;2.13;;
68718;SDS011;55696;52.138;5.444;2022-08-11T15:24:33;3.57;;;2.10;;
68718;SDS011;55696;52.138;5.444;2022-08-11T15:27:03;5.22;;;1.90;;
68718;SDS011;55696;52.138;5.444;2022-08-11T15:29:53;6.60;;;2.22;;
68718;SDS011;55696;52.138;5.444;2022-08-11T15:32:59;6.07;;;2.22;;
68718;SDS011;55696;52.138;5.444;2022-08-11T15:35:48;5.00;;;2.33;;
68718;SDS011;55696;52.138;5.444;2022-08-11T15:38:35;3.27;;;1.67;;
68718;SDS011;55696;52.138;5.444;2022-08-11T15:41:07;4.20;;;1.83;;
68718;SDS011;55696;52.138;5.444;2022-08-11T15:43:57;4.05;;;1.90;;
68718;SDS011;55696;52.138;5.444;2022-08-11T15:46:44;3.42;;;1.90;;
68718;SDS011;55696;52.138;5.444;2022-08-11T15:49:21;3.95;;;1.80;;
68718;SDS011;55696;52.138;5.444;2022-08-11T15:52:14;4.57;;;1.60;;
68718;SDS011;55696;52.138;5.444;2022-08-11T15:54:46;4.25;;;2.03;;
68718;SDS011;55696;52.138;5.444;2022-08-11T15:57:14;5.28;;;2.38;;
68718;SDS011;55696;52.138;5.444;2022-08-11T16:00:05;3.65;;;1.95;;
68718;SDS011;55696;52.138;5.444;2022-08-11T16:02:51;5.32;;;2.03;;
68718;SDS011;55696;52.138;5.444;2022-08-11T16:05:20;4.60;;;2.20;;
68718;SDS011;55696;52.138;5.444;2022-08-11T16:08:08;5.40;;;2.10;;
68718;SDS011;55696;52.138;5.444;2022-08-11T16:10:40;5.43;;;1.92;;
68718;SDS011;55696;52.138;5.444;2022-08-11T16:13:10;3.03;;;1.90;;
68718;SDS011;55696;52.138;5.444;2022-08-11T16:15:40;4.40;;;2.05;;
68718;SDS011;55696;52.138;5.444;2022-08-11T16:18:32;3.90;;;1.70;;
68718;SDS011;55696;52.138;5.444;2022-08-11T16:21:22;2.78;;;1.83;;
68718;SDS011;55696;52.138;5.444;2022-08-11T16:24:04;5.68;;;2.28;;
68718;SDS011;55696;52.138;5.444;2022-08-11T16:26:54;5.78;;;1.98;;
68718;SDS011;55696;52.138;5.444;2022-08-11T16:29:37;3.47;;;2.20;;
68718;SDS011;55696;52.138;5.444;2022-08-11T16:32:09;5.03;;;1.93;;
68718;SDS011;55696;52.138;5.444;2022-08-11T16:35:28;8.68;;;4.22;;
68718;SDS011;55696;52.138;5.444;2022-08-11T16:37:58;8.77;;;4.10;;
68718;SDS011;55696;52.138;5.444;2022-08-11T16:40:48;10.85;;;6.60;;
68718;SDS011;55696;52.138;5.444;2022-08-11T16:43:18;9.80;;;4.32;;
68718;SDS011;55696;52.138;5.444;2022-08-11T16:46:07;5.93;;;2.90;;
68718;SDS011;55696;52.138;5.444;2022-08-11T16:48:54;6.25;;;2.72;;
68718;SDS011;55696;52.138;5.444;2022-08-11T16:51:22;5.50;;;1.90;;
68718;SDS011;55696;52.138;5.444;2022-08-11T16:53:49;8.30;;;5.30;;
68718;SDS011;55696;52.138;5.444;2022-08-11T16:56:36;9.95;;;5.55;;
68718;SDS011;55696;52.138;5.444;2022-08-11T16:59:14;11.70;;;6.73;;
68718;SDS011;55696;52.138;5.444;2022-08-11T17:01:57;9.63;;;4.10;;
68718;SDS011;55696;52.138;5.444;2022-08-11T17:07:36;3.90;;;2.60;;
68718;SDS011;55696;52.138;5.444;2022-08-11T17:10:27;5.45;;;2.72;;
68718;SDS011;55696;52.138;5.444;2022-08-11T17:13:38;5.33;;;2.60;;
68718;SDS011;55696;52.138;5.444;2022-08-11T17:16:13;4.15;;;2.40;;
68718;SDS011;55696;52.138;5.444;2022-08-11T17:18:50;5.13;;;1.90;;
68718;SDS011;55696;52.138;5.444;2022-08-11T17:23:57;4.88;;;1.83;;
68718;SDS011;55696;52.138;5.444;2022-08-11T17:26:43;6.30;;;1.73;;
68718;SDS011;55696;52.138;5.444;2022-08-11T17:32:36;5.88;;;1.90;;
68718;SDS011;55696;52.138;5.444;2022-08-11T17:35:27;3.60;;;1.70;;
68718;SDS011;55696;52.138;5.444;2022-08-11T17:38:14;5.53;;;2.00;;
68718;SDS011;55696;52.138;5.444;2022-08-11T17:40:47;5.23;;;1.90;;
68718;SDS011;55696;52.138;5.444;2022-08-11T17:43:48;4.03;;;2.05;;
68718;SDS011;55696;52.138;5.444;2022-08-11T17:46:34;6.70;;;2.00;;
68718;SDS011;55696;52.138;5.444;2022-08-11T17:49:22;5.20;;;2.00;;
68718;SDS011;55696;52.138;5.444;2022-08-11T17:51:50;4.60;;;1.90;;
68718;SDS011;55696;52.138;5.444;2022-08-11T17:54:36;5.27;;;1.83;;
68718;SDS011;55696;52.138;5.444;2022-08-11T17:57:24;5.22;;;1.90;;
68718;SDS011;55696;52.138;5.444;2022-08-11T18:00:13;2.97;;;1.48;;
68718;SDS011;55696;52.138;5.444;2022-08-11T18:02:43;4.00;;;1.67;;
68718;SDS011;55696;52.138;5.444;2022-08-11T18:05:30;4.63;;;1.88;;
68718;SDS011;55696;52.138;5.444;2022-08-11T18:08:01;5.13;;;1.80;;
68718;SDS011;55696;52.138;5.444;2022-08-11T18:10:49;4.55;;;1.50;;
68718;SDS011;55696;52.138;5.444;2022-08-11T18:13:36;5.03;;;1.52;;
68718;SDS011;55696;52.138;5.444;2022-08-11T18:16:24;4.45;;;1.63;;
68718;SDS011;55696;52.138;5.444;2022-08-11T18:19:09;7.15;;;1.90;;
68718;SDS011;55696;52.138;5.444;2022-08-11T18:22:04;3.87;;;1.73;;
68718;SDS011;55696;52.138;5.444;2022-08-11T18:25:37;8.25;;;1.85;;
68718;SDS011;55696;52.138;5.444;2022-08-11T18:28:11;8.65;;;1.50;;
68718;SDS011;55696;52.138;5.444;2022-08-11T18:30:59;8.98;;;1.58;;
68718;SDS011;55696;52.138;5.444;2022-08-11T18:33:53;4.47;;;1.40;;
68718;SDS011;55696;52.138;5.444;2022-08-11T18:36:40;6.47;;;1.83;;
68718;SDS011;55696;52.138;5.444;2022-08-11T18:39:31;3.38;;;1.52;;
68718;SDS011;55696;52.138;5.444;2022-08-11T18:42:22;6.13;;;1.50;;
68718;SDS011;55696;52.138;5.444;2022-08-11T18:45:10;6.47;;;1.65;;
68718;SDS011;55696;52.138;5.444;2022-08-11T18:48:11;3.33;;;1.40;;
68718;SDS011;55696;52.138;5.444;2022-08-11T18:51:02;2.90;;;1.33;;
68718;SDS011;55696;52.138;5.444;2022-08-11T18:54:03;5.57;;;1.52;;
68718;SDS011;55696;52.138;5.444;2022-08-11T18:56:52;4.30;;;1.50;;
68718;SDS011;55696;52.138;5.444;2022-08-11T18:59:41;4.63;;;1.70;;
68718;SDS011;55696;52.138;5.444;2022-08-11T19:02:28;3.17;;;1.70;;
68718;SDS011;55696;52.138;5.444;2022-08-11T19:05:18;4.93;;;1.47;;
68718;SDS011;55696;52.138;5.444;2022-08-11T19:08:27;6.40;;;1.70;;
68718;SDS011;55696;52.138;5.444;2022-08-11T19:11:19;3.33;;;1.55;;
68718;SDS011;55696;52.138;5.444;2022-08-11T19:14:09;7.05;;;1.73;;
68718;SDS011;55696;52.138;5.444;2022-08-11T19:16:56;3.65;;;1.67;;
68718;SDS011;55696;52.138;5.444;2022-08-11T19:20:05;6.23;;;1.60;;
68718;SDS011;55696;52.138;5.444;2022-08-11T19:22:53;5.57;;;1.73;;
68718;SDS011;55696;52.138;5.444;2022-08-11T19:25:39;3.88;;;1.27;;